Terminal Aerodrome Forecast
Issued by NWS

Home | Current Version | Previous Version | Text Only | Print | Product List | Glossary On
Versions: 1 2 3 4 5 6 7 8 9 10 11 12 13 14 15 16 17 18 19
000
FTUS43 KICT 272340
TAFRSL
TAF
KRSL 272340Z 2800/2824 17022G30KT P6SM BKN300
     FM280300 17022G30KT P6SM OVC300 WS015/19050KT
     FM281500 20025G35KT P6SM BKN300
     FM282000 22017KT P6SM BKN300=

USA.gov is the U.S. government's official web portal to all federal, state and local government web resources and services.